Time;durP1;ratioP1;P1;durP2;ratioP2;P2;SDS_P1;SDS_P2;PMS_P1;PMS_P2;Temp;Humidity;BMP_temperature;BMP_pressure;BME280_temperature;BME280_humidity;BME280_pressure;Samples;Min_cycle;Max_cycle;Signal;HPM_P1;HPM_P2
2021/06/26 00:01:16;;;;;;;16.98;12.07;;;17.50;99.90;;;;;;6188569;23;20087;-83
2021/06/26 00:03:44;;;;;;;20.23;12.65;;;17.50;99.90;;;;;;6189090;23;20017;-83
2021/06/26 00:06:11;;;;;;;20.92;12.93;;;17.30;99.90;;;;;;6184961;23;20521;-83
2021/06/26 00:08:38;;;;;;;18.80;12.80;;;17.10;99.90;;;;;;6185860;23;20359;-82
2021/06/26 00:11:05;;;;;;;19.10;12.32;;;17.10;99.90;;;;;;6189607;23;20032;-82
2021/06/26 00:13:32;;;;;;;18.52;12.05;;;17.00;99.90;;;;;;6191511;23;20072;-82
2021/06/26 00:15:59;;;;;;;18.58;12.80;;;17.00;99.90;;;;;;6189039;23;20027;-83
2021/06/26 00:18:26;;;;;;;20.23;12.75;;;17.00;99.90;;;;;;6189911;23;20454;-82
2021/06/26 00:20:54;;;;;;;21.05;12.55;;;17.00;99.90;;;;;;6191952;23;20091;-81
2021/06/26 00:23:21;;;;;;;17.45;11.95;;;17.00;99.90;;;;;;6185254;23;20538;-82
2021/06/26 00:25:48;;;;;;;17.27;11.98;;;17.00;99.90;;;;;;6186638;23;20021;-83
2021/06/26 00:28:14;;;;;;;18.08;12.57;;;17.00;99.90;;;;;;6186533;23;20394;-83
2021/06/26 00:30:41;;;;;;;19.13;12.73;;;16.90;99.90;;;;;;6190657;23;20079;-82
2021/06/26 00:33:08;;;;;;;20.20;12.95;;;16.80;99.90;;;;;;6189127;23;20025;-83
2021/06/26 00:35:35;;;;;;;18.73;12.70;;;16.80;99.90;;;;;;6216000;23;20021;-80
2021/06/26 00:38:03;;;;;;;19.85;13.25;;;16.70;99.90;;;;;;6190606;23;20021;-81
2021/06/26 00:40:30;;;;;;;19.55;13.80;;;16.70;99.90;;;;;;6199761;23;20470;-83
2021/06/26 00:42:59;;;;;;;20.27;12.65;;;16.70;99.90;;;;;;6191631;23;20508;-80
2021/06/26 00:45:26;;;;;;;22.42;13.60;;;16.60;99.90;;;;;;6189290;23;20025;-82
2021/06/26 00:47:53;;;;;;;19.00;13.00;;;16.40;99.90;;;;;;6190386;23;20025;-81
2021/06/26 00:50:23;;;;;;;22.35;13.27;;;17.90;99.90;;;;;;6201954;23;20020;-82
2021/06/26 00:52:50;;;;;;;24.00;14.70;;;16.30;99.90;;;;;;6189964;23;20080;-83
2021/06/26 00:55:19;;;;;;;20.65;14.02;;;16.20;99.90;;;;;;6191158;23;20087;-82
2021/06/26 00:57:49;;;;;;;18.98;13.13;;;16.20;99.90;;;;;;6191454;23;20068;-83
2021/06/26 01:00:17;;;;;;;23.85;13.82;;;16.30;99.90;;;;;;6191057;23;20087;-83
2021/06/26 01:02:44;;;;;;;24.42;14.88;;;16.30;99.90;;;;;;6191209;23;20084;-82
2021/06/26 01:05:12;;;;;;;22.38;14.43;;;16.20;99.90;;;;;;6191954;23;20017;-82
2021/06/26 01:07:39;;;;;;;20.52;14.20;;;16.20;99.90;;;;;;6191287;23;20478;-82
2021/06/26 01:10:07;;;;;;;22.35;14.68;;;16.30;99.90;;;;;;6190938;23;20020;-81
2021/06/26 01:12:36;;;;;;;26.15;16.20;;;16.30;99.90;;;;;;6201452;23;20536;-82
2021/06/26 01:15:05;;;;;;;25.77;15.93;;;16.20;99.90;;;;;;6192914;23;20044;-82
2021/06/26 01:17:32;;;;;;;23.88;15.82;;;16.20;99.90;;;;;;6201552;23;20067;-83
2021/06/26 01:20:00;;;;;;;25.90;16.70;;;16.00;99.90;;;;;;6188061;23;20013;-82
2021/06/26 01:22:29;;;;;;;26.23;17.38;;;16.00;99.90;;;;;;6188250;23;20076;-83
2021/06/26 01:24:56;;;;;;;26.10;17.27;;;16.00;99.90;;;;;;6191117;23;20029;-82
2021/06/26 01:27:23;;;;;;;27.42;17.52;;;16.00;99.90;;;;;;6191351;23;20029;-83
2021/06/26 01:29:51;;;;;;;23.80;15.15;;;16.00;99.90;;;;;;6193945;23;20025;-83
2021/06/26 01:32:20;;;;;;;20.80;14.00;;;16.10;99.90;;;;;;6189802;23;20079;-83
2021/06/26 01:34:47;;;;;;;23.15;13.85;;;16.10;99.90;;;;;;6193260;23;20020;-82
2021/06/26 01:37:15;;;;;;;22.73;14.52;;;16.10;99.90;;;;;;6190115;23;20017;-83
2021/06/26 01:39:43;;;;;;;22.98;13.75;;;16.00;99.90;;;;;;6192237;23;20028;-82
2021/06/26 01:42:10;;;;;;;22.92;13.52;;;16.00;99.90;;;;;;6188045;23;20025;-82
2021/06/26 01:44:37;;;;;;;19.45;13.35;;;15.90;99.90;;;;;;6191533;23;20355;-83
2021/06/26 01:47:06;;;;;;;19.98;12.73;;;15.90;99.90;;;;;;6193029;23;20025;-83
2021/06/26 01:49:33;;;;;;;21.50;14.40;;;15.90;99.90;;;;;;6192201;23;20020;-82
2021/06/26 01:52:00;;;;;;;23.65;14.82;;;15.90;99.90;;;;;;6204403;23;20025;-83
2021/06/26 01:54:27;;;;;;;26.08;13.98;;;15.80;99.90;;;;;;6191213;23;20351;-82
2021/06/26 01:56:55;;;;;;;24.92;14.02;;;15.80;99.90;;;;;;6192465;23;20017;-83
2021/06/26 01:59:21;;;;;;;20.48;13.45;;;15.80;99.90;;;;;;6190698;23;20072;-82
2021/06/26 02:01:48;;;;;;;20.55;13.20;;;15.70;99.90;;;;;;6192655;23;20017;-83
2021/06/26 02:04:15;;;;;;;22.42;13.07;;;15.60;99.90;;;;;;6191835;23;20025;-82
2021/06/26 02:06:42;;;;;;;23.27;13.80;;;15.60;99.90;;;;;;6192333;23;20017;-83
2021/06/26 02:09:09;;;;;;;23.05;14.10;;;15.50;99.90;;;;;;6192332;23;20025;-83
2021/06/26 02:11:36;;;;;;;22.73;13.20;;;15.50;99.90;;;;;;6201367;23;20458;-82
2021/06/26 02:14:04;;;;;;;24.13;14.02;;;15.50;99.90;;;;;;6203183;23;20494;-83
2021/06/26 02:16:31;;;;;;;21.00;14.38;;;15.60;99.90;;;;;;6194570;23;20020;-84
2021/06/26 02:18:58;;;;;;;21.95;14.38;;;15.70;99.90;;;;;;6192574;23;20075;-83
2021/06/26 02:21:25;;;;;;;23.17;14.82;;;15.70;99.90;;;;;;6192148;23;20439;-83
2021/06/26 02:23:51;;;;;;;25.15;16.25;;;15.60;99.90;;;;;;6192365;23;20017;-82
2021/06/26 02:26:18;;;;;;;25.75;16.65;;;15.60;99.90;;;;;;6195501;23;20046;-82
2021/06/26 02:28:45;;;;;;;26.33;16.88;;;15.60;99.90;;;;;;6194011;23;20020;-82
2021/06/26 02:31:13;;;;;;;27.83;16.60;;;15.40;99.90;;;;;;6194800;23;20531;-83
2021/06/26 02:33:41;;;;;;;27.42;16.88;;;15.40;99.90;;;;;;6192928;23;20025;-84
2021/06/26 02:36:07;;;;;;;29.83;18.98;;;15.30;99.90;;;;;;6196303;23;20016;-80
2021/06/26 02:38:34;;;;;;;30.23;19.13;;;16.20;99.90;;;;;;6204304;23;20020;-80
2021/06/26 02:41:01;;;;;;;31.15;18.73;;;15.30;99.90;;;;;;6205875;23;20438;-81
2021/06/26 02:43:28;;;;;;;32.00;19.77;;;15.30;99.90;;;;;;6206570;23;20017;-83
2021/06/26 02:45:55;;;;;;;33.20;20.25;;;15.30;99.90;;;;;;6205962;23;20017;-82
2021/06/26 02:48:23;;;;;;;28.75;20.20;;;15.30;99.90;;;;;;6183903;23;20021;-83
2021/06/26 02:50:50;;;;;;;30.20;17.88;;;15.30;99.90;;;;;;6191047;23;20079;-84
2021/06/26 02:53:17;;;;;;;29.77;19.20;;;15.20;99.90;;;;;;6182519;23;20450;-81
2021/06/26 02:55:44;;;;;;;29.08;18.70;;;15.20;99.90;;;;;;6181942;23;20025;-80
2021/06/26 02:58:10;;;;;;;29.02;18.00;;;15.20;99.90;;;;;;6181251;23;20071;-80
2021/06/26 03:00:37;;;;;;;27.45;16.88;;;15.30;99.90;;;;;;6181976;23;20079;-84
2021/06/26 03:03:04;;;;;;;27.42;17.90;;;15.20;99.90;;;;;;6182530;23;20029;-83
2021/06/26 03:05:33;;;;;;;25.95;17.27;;;15.10;99.90;;;;;;6182145;23;20021;-82
2021/06/26 03:07:59;;;;;;;28.42;17.00;;;15.00;99.90;;;;;;6183145;23;20021;-82
2021/06/26 03:10:26;;;;;;;26.23;16.40;;;15.00;99.90;;;;;;6191307;23;20521;-82
2021/06/26 03:12:53;;;;;;;26.92;16.77;;;14.90;99.90;;;;;;6192707;23;20071;-82
2021/06/26 03:15:20;;;;;;;26.25;17.17;;;14.90;99.90;;;;;;6191504;23;20500;-84
2021/06/26 03:17:47;;;;;;;29.40;17.95;;;14.80;99.90;;;;;;6181789;23;20454;-82
2021/06/26 03:20:14;;;;;;;27.20;17.63;;;14.70;99.90;;;;;;6182027;23;20020;-82
2021/06/26 03:22:42;;;;;;;30.65;19.67;;;16.80;99.90;;;;;;6182874;23;20017;-82
2021/06/26 03:25:13;;;;;;;29.65;18.83;;;14.70;99.90;;;;;;6182441;23;20013;-81
2021/06/26 03:27:41;;;;;;;31.90;18.75;;;14.70;99.90;;;;;;6183534;23;20128;-81
2021/06/26 03:30:09;;;;;;;27.65;18.50;;;14.70;99.90;;;;;;6182024;23;20028;-84
2021/06/26 03:32:36;;;;;;;29.50;18.58;;;14.70;99.90;;;;;;6183467;23;20029;-83
2021/06/26 03:35:04;;;;;;;30.55;18.92;;;14.90;99.90;;;;;;6182735;23;20537;-80
2021/06/26 03:37:31;;;;;;;29.20;19.27;;;14.60;99.90;;;;;;6212269;23;20070;-82
2021/06/26 03:39:59;;;;;;;34.47;20.05;;;14.70;99.90;;;;;;6244369;23;20020;-83
2021/06/26 03:42:26;;;;;;;27.92;18.95;;;14.70;99.90;;;;;;6242138;23;20020;-82
2021/06/26 03:44:52;;;;;;;31.35;19.90;;;14.80;99.90;;;;;;6243342;23;20016;-83
2021/06/26 03:47:19;;;;;;;31.35;18.77;;;14.80;99.90;;;;;;6218263;23;20046;-83
2021/06/26 03:49:46;;;;;;;32.28;19.17;;;14.80;99.90;;;;;;6220671;23;20066;-82
2021/06/26 03:52:13;;;;;;;30.52;19.88;;;14.90;99.90;;;;;;6244424;23;20013;-81
2021/06/26 03:54:40;;;;;;;32.70;19.33;;;15.00;99.90;;;;;;6218964;23;20020;-81
2021/06/26 03:57:08;;;;;;;30.45;19.52;;;15.00;99.90;;;;;;6245301;23;20642;-84
2021/06/26 03:59:35;;;;;;;30.33;20.10;;;15.00;99.90;;;;;;6245258;23;20024;-82
2021/06/26 04:02:06;;;;;;;31.08;18.10;;;15.00;99.90;;;;;;6246155;23;20035;-81
2021/06/26 04:04:34;;;;;;;30.83;18.95;;;15.10;99.90;;;;;;6246560;23;20028;-84
2021/06/26 04:07:01;;;;;;;27.52;17.92;;;15.10;99.90;;;;;;6217985;23;20074;-82
2021/06/26 04:09:28;;;;;;;26.80;18.08;;;15.20;99.90;;;;;;6245126;23;20271;-80
2021/06/26 04:11:55;;;;;;;30.63;18.70;;;15.10;99.90;;;;;;6219986;23;20165;-83
2021/06/26 04:14:23;;;;;;;28.50;17.92;;;15.20;99.90;;;;;;6220610;23;20090;-81
2021/06/26 04:16:50;;;;;;;29.52;19.38;;;15.30;99.90;;;;;;6219540;23;20016;-82
2021/06/26 04:19:17;;;;;;;35.08;20.95;;;15.40;99.90;;;;;;6220922;23;20020;-81
2021/06/26 04:21:44;;;;;;;32.00;20.60;;;15.40;99.90;;;;;;6243759;23;20024;-82
2021/06/26 04:24:10;;;;;;;31.75;20.50;;;15.40;99.90;;;;;;6220594;23;20020;-81
2021/06/26 04:26:37;;;;;;;29.42;19.30;;;15.60;99.90;;;;;;6220696;23;20016;-84
2021/06/26 04:29:04;;;;;;;28.20;17.67;;;15.70;99.90;;;;;;6246057;23;20043;-81
2021/06/26 04:31:32;;;;;;;30.45;18.13;;;15.80;99.90;;;;;;6243170;23;20011;-83
2021/06/26 04:33:59;;;;;;;25.92;17.08;;;15.80;99.90;;;;;;6220553;23;20020;-83
2021/06/26 04:36:26;;;;;;;27.48;17.63;;;15.90;99.90;;;;;;6245305;23;20024;-84
2021/06/26 04:38:53;;;;;;;28.30;17.73;;;15.90;99.90;;;;;;6246448;23;20378;-84
2021/06/26 04:41:20;;;;;;;26.08;16.63;;;16.00;99.90;;;;;;6217290;23;20059;-81
2021/06/26 04:43:46;;;;;;;28.48;18.17;;;16.10;99.90;;;;;;6217374;23;20074;-82
2021/06/26 04:46:13;;;;;;;25.60;16.15;;;16.10;99.90;;;;;;6217342;23;20016;-82
2021/06/26 04:48:42;;;;;;;27.48;16.60;;;16.10;99.90;;;;;;6217991;23;20023;-80
2021/06/26 04:51:09;;;;;;;26.50;16.90;;;16.30;99.90;;;;;;6217140;23;20066;-80
2021/06/26 04:53:36;;;;;;;28.88;19.55;;;16.30;99.90;;;;;;6243040;23;20020;-80
2021/06/26 04:56:03;;;;;;;28.75;19.38;;;16.30;99.90;;;;;;6241902;23;20012;-81
2021/06/26 04:58:30;;;;;;;28.95;18.00;;;16.30;99.90;;;;;;6217056;23;20028;-82
2021/06/26 05:00:58;;;;;;;29.60;19.05;;;16.30;99.90;;;;;;6243178;23;20020;-81
2021/06/26 05:03:25;;;;;;;30.35;20.50;;;16.30;99.90;;;;;;6216776;23;20031;-81
2021/06/26 05:05:53;;;;;;;30.20;19.30;;;16.30;99.90;;;;;;6241636;23;20024;-81
2021/06/26 05:08:20;;;;;;;28.20;19.13;;;16.30;99.90;;;;;;6217974;23;20027;-81
2021/06/26 05:10:48;;;;;;;28.80;18.27;;;16.30;99.90;;;;;;6217304;23;20016;-81
2021/06/26 05:13:15;;;;;;;28.25;18.52;;;16.30;99.90;;;;;;6227772;23;20020;-82
2021/06/26 05:15:42;;;;;;;33.50;19.83;;;16.30;99.90;;;;;;6216551;23;20016;-81
2021/06/26 05:18:10;;;;;;;31.77;20.05;;;16.30;99.90;;;;;;6216983;23;20441;-80
2021/06/26 05:20:37;;;;;;;28.02;18.50;;;16.30;99.90;;;;;;6217235;23;20440;-81
2021/06/26 05:23:13;;;;;;;32.78;20.02;;;16.30;99.90;;;;;;6243646;23;20066;-80
2021/06/26 05:25:41;;;;;;;32.88;19.67;;;16.40;99.90;;;;;;6244863;23;20082;-81
2021/06/26 05:28:08;;;;;;;32.60;20.17;;;16.40;99.90;;;;;;6216546;23;20176;-79
2021/06/26 05:30:35;;;;;;;27.13;18.50;;;16.50;99.90;;;;;;6242926;23;20024;-82
2021/06/26 05:33:04;;;;;;;27.85;18.75;;;16.50;99.90;;;;;;6217246;23;20095;-80
2021/06/26 05:35:31;;;;;;;36.47;20.42;;;16.60;99.90;;;;;;6217706;23;20070;-81
2021/06/26 05:37:58;;;;;;;32.97;19.75;;;16.60;99.90;;;;;;6244663;23;20020;-82
2021/06/26 05:40:26;;;;;;;31.98;20.90;;;16.70;99.90;;;;;;6242196;23;20377;-82
2021/06/26 05:42:54;;;;;;;33.53;20.90;;;16.80;99.90;;;;;;6216488;23;20016;-81
2021/06/26 05:45:21;;;;;;;28.33;19.80;;;16.90;99.90;;;;;;6215340;23;20020;-80
2021/06/26 05:47:48;;;;;;;33.30;21.25;;;16.90;99.90;;;;;;6217003;23;20078;-82
2021/06/26 05:50:14;;;;;;;30.40;20.33;;;17.00;99.90;;;;;;6217747;23;20070;-80
2021/06/26 05:52:47;;;;;;;25.35;17.63;;;17.10;99.90;;;;;;6218220;23;20079;-81
2021/06/26 05:55:15;;;;;;;31.60;20.40;;;17.20;99.90;;;;;;6244100;23;20082;-82
2021/06/26 05:57:44;;;;;;;29.40;20.10;;;17.30;99.90;;;;;;6217119;23;20023;-82
2021/06/26 06:00:12;;;;;;;32.80;20.67;;;17.30;99.90;;;;;;6227320;23;20070;-81
2021/06/26 06:02:39;;;;;;;30.25;20.55;;;17.30;99.90;;;;;;6242250;23;20015;-82
2021/06/26 06:05:09;;;;;;;29.73;18.77;;;17.40;99.90;;;;;;6216107;23;20078;-81
2021/06/26 06:07:36;;;;;;;28.80;18.85;;;17.60;99.90;;;;;;6215759;23;20024;-81
2021/06/26 06:10:05;;;;;;;28.00;18.15;;;17.70;99.90;;;;;;6242251;23;20561;-80
2021/06/26 06:12:32;;;;;;;26.35;17.98;;;17.90;99.90;;;;;;6243116;23;20016;-82
2021/06/26 06:15:01;;;;;;;26.35;18.63;;;17.70;99.90;;;;;;6216199;23;20020;-85
2021/06/26 06:17:28;;;;;;;27.88;19.17;;;17.80;99.90;;;;;;6228288;23;20091;-82
2021/06/26 06:19:55;;;;;;;28.63;18.90;;;17.90;99.90;;;;;;6243696;23;20023;-84
2021/06/26 06:22:25;;;;;;;27.23;18.17;;;17.90;99.90;;;;;;6217982;23;20008;-82
2021/06/26 06:24:52;;;;;;;29.20;19.35;;;18.00;99.90;;;;;;6226232;23;20027;-82
2021/06/26 06:27:19;;;;;;;29.42;19.17;;;18.10;99.90;;;;;;6240946;23;20508;-84
2021/06/26 06:29:46;;;;;;;31.20;18.88;;;19.10;99.90;;;;;;6214715;23;20388;-82
2021/06/26 06:32:14;;;;;;;31.13;18.65;;;18.30;99.90;;;;;;6237586;23;20042;-82
2021/06/26 06:34:41;;;;;;;30.13;18.70;;;18.30;99.90;;;;;;6215737;23;20016;-82
2021/06/26 06:37:08;;;;;;;28.58;18.90;;;18.50;99.90;;;;;;6216158;23;20028;-82
2021/06/26 06:39:35;;;;;;;28.13;20.45;;;18.70;99.90;;;;;;6240217;23;20016;-82
2021/06/26 06:42:02;;;;;;;28.17;17.60;;;18.80;99.90;;;;;;6240512;23;20016;-81
2021/06/26 06:44:29;;;;;;;26.35;18.85;;;18.90;99.90;;;;;;6215672;23;20572;-83
2021/06/26 06:46:56;;;;;;;25.08;18.15;;;18.90;99.90;;;;;;6216663;23;20020;-84
2021/06/26 06:49:24;;;;;;;26.63;18.27;;;18.80;99.90;;;;;;6216202;23;20020;-82
2021/06/26 06:51:53;;;;;;;31.02;20.30;;;19.00;99.90;;;;;;6217122;23;20012;-82
2021/06/26 06:54:20;;;;;;;27.35;19.58;;;19.10;99.90;;;;;;6217915;23;20024;-83
2021/06/26 06:56:47;;;;;;;29.45;19.98;;;19.20;99.90;;;;;;6243402;23;20499;-83
2021/06/26 06:59:13;;;;;;;29.58;19.40;;;19.10;99.90;;;;;;6214358;23;20070;-82
2021/06/26 07:01:41;;;;;;;28.02;19.23;;;19.20;99.90;;;;;;6215403;23;20441;-82
2021/06/26 07:04:08;;;;;;;28.92;18.90;;;19.20;99.90;;;;;;6215537;23;20016;-82
2021/06/26 07:06:36;;;;;;;29.98;19.95;;;19.30;99.90;;;;;;6214611;23;20078;-83
2021/06/26 07:09:03;;;;;;;30.05;19.23;;;19.40;99.90;;;;;;6240452;23;20024;-83
2021/06/26 07:11:30;;;;;;;30.42;18.98;;;19.30;99.90;;;;;;6216882;23;20016;-85
2021/06/26 07:13:57;;;;;;;26.52;18.02;;;19.40;99.90;;;;;;6241405;23;20095;-84
2021/06/26 07:16:24;;;;;;;25.92;18.00;;;19.60;99.90;;;;;;6216638;23;20016;-81
2021/06/26 07:18:51;;;;;;;27.75;19.50;;;19.80;99.90;;;;;;6215055;23;20028;-82
2021/06/26 07:21:21;;;;;;;28.15;18.52;;;19.90;99.90;;;;;;6243813;23;20087;-83
2021/06/26 07:23:50;;;;;;;24.95;17.38;;;20.10;99.90;;;;;;6219157;23;20020;-82
2021/06/26 07:26:17;;;;;;;27.10;17.65;;;21.00;99.90;;;;;;6229658;23;20016;-83
2021/06/26 07:28:43;;;;;;;27.30;17.33;;;20.20;99.90;;;;;;6218834;23;20020;-82
2021/06/26 07:31:11;;;;;;;27.63;18.33;;;20.20;99.90;;;;;;6228225;23;20020;-83
2021/06/26 07:33:38;;;;;;;27.48;18.10;;;20.70;99.90;;;;;;6218178;23;20046;-82
2021/06/26 07:36:07;;;;;;;23.63;17.42;;;20.30;99.90;;;;;;6217869;23;20016;-82
2021/06/26 07:38:52;;;;;;;25.35;17.15;;;20.30;99.90;;;;;;6216328;23;20073;-82
2021/06/26 07:41:29;;;;;;;23.13;16.55;;;18.90;99.90;;;;;;6216753;23;20428;-82
2021/06/26 07:43:56;;;;;;;25.15;16.90;;;22.20;99.90;;;;;;6230719;23;20449;-83
2021/06/26 07:46:26;;;;;;;24.20;16.50;;;20.70;99.90;;;;;;6218130;23;20024;-83
2021/06/26 07:48:53;;;;;;;30.85;17.98;;;22.60;99.90;;;;;;6217382;23;20027;-82
2021/06/26 07:51:20;;;;;;;27.27;17.17;;;21.80;99.90;;;;;;6215696;23;20023;-83
2021/06/26 07:53:47;;;;;;;24.75;16.17;;;20.90;99.90;;;;;;6243903;23;20054;-81
2021/06/26 07:56:14;;;;;;;25.98;17.65;;;20.90;99.90;;;;;;6241361;23;20501;-82
2021/06/26 07:58:42;;;;;;;22.52;15.65;;;21.10;99.90;;;;;;6219010;23;20473;-81
2021/06/26 08:01:10;;;;;;;23.60;16.58;;;21.50;99.90;;;;;;6215647;23;20349;-81
2021/06/26 08:03:37;;;;;;;25.77;17.45;;;21.60;99.90;;;;;;6240421;23;20012;-82
2021/06/26 08:06:04;;;;;;;22.55;15.25;;;21.70;99.90;;;;;;6215520;23;20024;-82
2021/06/26 08:08:35;;;;;;;24.88;15.82;;;21.40;99.90;;;;;;6218460;23;20016;-82
2021/06/26 08:11:02;;;;;;;23.02;15.68;;;21.30;99.90;;;;;;6241797;23;20020;-80
2021/06/26 08:13:29;;;;;;;21.40;14.77;;;21.50;99.90;;;;;;6216161;23;20024;-82
2021/06/26 08:15:58;;;;;;;24.10;15.93;;;21.70;99.90;;;;;;6217095;23;20393;-81
2021/06/26 08:18:25;;;;;;;21.17;16.17;;;21.80;99.90;;;;;;6217765;23;20313;-82
2021/06/26 08:20:52;;;;;;;24.10;15.27;;;21.90;99.90;;;;;;6216937;23;20093;-82
2021/06/26 08:23:21;;;;;;;17.88;13.48;;;21.70;99.90;;;;;;6242015;23;20046;-82
2021/06/26 08:25:48;;;;;;;22.35;14.88;;;22.00;99.90;;;;;;6227863;23;20023;-82
2021/06/26 08:28:15;;;;;;;24.73;15.13;;;22.20;99.90;;;;;;6212948;23;20046;-82
2021/06/26 08:30:42;;;;;;;19.98;13.55;;;22.40;99.90;;;;;;6241634;23;20343;-82
2021/06/26 08:33:10;;;;;;;25.08;16.17;;;22.50;99.90;;;;;;6226583;23;20020;-82
2021/06/26 08:35:37;;;;;;;22.27;15.75;;;24.20;99.90;;;;;;6215818;23;20020;-81
2021/06/26 08:40:34;;;;;;;23.50;16.00;;;22.60;99.90;;;;;;6209441;23;20102;-84
2021/06/26 08:43:01;;;;;;;22.55;15.98;;;22.50;99.90;;;;;;6211050;23;20051;-83
2021/06/26 08:45:27;;;;;;;25.00;15.90;;;22.10;99.90;;;;;;6215694;23;20032;-84
2021/06/26 08:47:56;;;;;;;22.70;14.90;;;22.20;99.90;;;;;;6218802;23;20025;-84
2021/06/26 08:50:26;;;;;;;25.27;15.68;;;22.50;99.90;;;;;;6193939;23;20016;-83
2021/06/26 08:52:52;;;;;;;23.42;15.05;;;22.60;99.90;;;;;;6194525;23;20013;-84
2021/06/26 08:55:20;;;;;;;22.90;15.43;;;22.70;99.90;;;;;;6196195;23;20020;-83
2021/06/26 08:57:47;;;;;;;23.58;15.80;;;22.60;99.90;;;;;;6195411;23;20020;-85
2021/06/26 09:00:18;;;;;;;25.30;15.57;;;22.70;99.90;;;;;;6195015;23;20487;-84
2021/06/26 09:02:45;;;;;;;21.45;14.70;;;22.70;99.70;;;;;;6195749;23;20063;-85
2021/06/26 09:05:25;;;;;;;22.98;15.40;;;22.70;99.70;;;;;;6207165;23;20020;-84
2021/06/26 09:07:53;;;;;;;24.48;16.05;;;22.80;99.90;;;;;;6196350;23;20450;-83
2021/06/26 09:10:21;;;;;;;22.80;15.32;;;22.70;99.90;;;;;;6192666;23;20078;-84
2021/06/26 09:12:50;;;;;;;22.65;14.10;;;23.10;99.90;;;;;;6195401;23;20052;-84
2021/06/26 09:15:22;;;;;;;22.85;14.80;;;23.40;99.90;;;;;;6197219;23;20074;-84
2021/06/26 09:17:49;;;;;;;22.10;15.32;;;23.60;99.00;;;;;;6196071;23;20028;-85
2021/06/26 09:20:16;;;;;;;22.90;15.32;;;23.40;99.20;;;;;;6198057;23;20090;-84
2021/06/26 09:22:49;;;;;;;22.15;15.38;;;23.50;98.90;;;;;;6222949;23;20016;-84
2021/06/26 09:25:32;;;;;;;21.90;15.52;;;23.70;99.90;;;;;;6222013;23;20043;-83
2021/06/26 09:28:00;;;;;;;23.73;14.88;;;23.90;98.50;;;;;;6198667;23;20055;-83
2021/06/26 09:30:36;;;;;;;25.40;15.75;;;23.80;98.00;;;;;;6233877;23;20442;-83
2021/06/26 09:33:15;;;;;;;22.30;14.90;;;23.70;98.10;;;;;;6196074;23;20370;-81
2021/06/26 09:35:44;;;;;;;24.23;15.93;;;23.80;98.40;;;;;;6223465;23;20024;-83
2021/06/26 09:38:13;;;;;;;21.00;14.50;;;23.80;98.20;;;;;;6222398;23;20016;-84
2021/06/26 09:40:41;;;;;;;22.35;15.25;;;24.10;98.80;;;;;;6194184;23;20029;-84
2021/06/26 09:43:09;;;;;;;22.40;15.13;;;24.20;97.30;;;;;;6191369;23;20032;-84
2021/06/26 09:45:35;;;;;;;23.05;15.43;;;24.10;97.00;;;;;;6191980;23;20021;-84
2021/06/26 09:48:05;;;;;;;22.85;15.57;;;23.60;97.40;;;;;;6192125;23;20025;-85
2021/06/26 09:50:35;;;;;;;21.00;15.00;;;23.50;97.80;;;;;;6192596;23;20080;-83
2021/06/26 09:53:04;;;;;;;24.02;15.75;;;23.50;97.10;;;;;;6192689;23;20608;-84
2021/06/26 09:55:35;;;;;;;18.67;14.45;;;23.20;98.40;;;;;;6194371;23;20021;-84
2021/06/26 09:58:08;;;;;;;22.95;14.32;;;23.50;98.20;;;;;;6191236;23;20489;-83
2021/06/26 10:00:37;;;;;;;18.77;13.15;;;23.70;97.60;;;;;;6189061;23;20431;-83
2021/06/26 10:03:05;;;;;;;23.35;14.35;;;24.80;97.70;;;;;;6190303;23;20017;-83
2021/06/26 10:05:32;;;;;;;21.33;14.68;;;23.70;97.90;;;;;;6192315;23;20068;-84
2021/06/26 10:08:03;;;;;;;24.45;15.50;;;23.60;97.80;;;;;;6195888;23;20574;-83
2021/06/26 10:10:30;;;;;;;24.38;16.23;;;23.60;97.50;;;;;;6194124;23;20080;-83
2021/06/26 10:12:59;;;;;;;21.70;15.27;;;23.40;97.50;;;;;;6192958;23;20017;-84
2021/06/26 10:15:28;;;;;;;21.48;13.93;;;23.40;98.60;;;;;;6194045;23;20060;-84
2021/06/26 10:17:55;;;;;;;21.60;14.23;;;23.50;98.50;;;;;;6194350;23;20075;-84
2021/06/26 10:20:24;;;;;;;22.90;14.45;;;23.30;98.10;;;;;;6194499;23;20025;-84
2021/06/26 10:22:54;;;;;;;24.55;14.98;;;23.10;98.70;;;;;;6212256;23;20041;-83
2021/06/26 10:25:21;;;;;;;20.35;14.10;;;23.20;98.20;;;;;;6204987;23;20013;-84
2021/06/26 10:27:48;;;;;;;18.52;13.25;;;23.20;98.00;;;;;;6191303;23;20013;-84
2021/06/26 10:30:18;;;;;;;22.02;14.65;;;23.30;99.90;;;;;;6200644;23;20087;-82
2021/06/26 10:32:53;;;;;;;19.33;13.50;;;23.40;98.50;;;;;;6188816;23;20009;-84
2021/06/26 10:35:21;;;;;;;21.55;14.27;;;23.20;98.60;;;;;;6188483;23;20020;-84
2021/06/26 10:37:59;;;;;;;16.98;12.52;;;23.30;98.40;;;;;;6198808;23;20067;-82
2021/06/26 10:40:38;;;;;;;23.25;15.90;;;23.50;98.50;;;;;;6189511;23;20020;-82
2021/06/26 10:43:17;;;;;;;21.37;14.77;;;23.30;97.80;;;;;;6191376;23;20021;-82
2021/06/26 10:45:46;;;;;;;19.20;13.45;;;23.20;98.30;;;;;;6187592;23;20021;-82
2021/06/26 10:48:18;;;;;;;16.58;11.45;;;23.40;99.90;;;;;;6188969;23;20025;-82
2021/06/26 10:50:47;;;;;;;20.20;14.25;;;23.40;99.90;;;;;;6191101;23;20455;-84
2021/06/26 10:53:24;;;;;;;21.05;14.38;;;23.30;99.60;;;;;;6189741;23;20017;-83
2021/06/26 10:55:58;;;;;;;21.13;13.52;;;23.40;99.00;;;;;;6188322;23;20087;-82
2021/06/26 10:58:28;;;;;;;19.48;12.98;;;23.50;98.60;;;;;;6187494;23;20020;-83
2021/06/26 11:00:57;;;;;;;18.63;11.90;;;23.70;99.30;;;;;;6188092;23;20051;-82
2021/06/26 11:03:35;;;;;;;17.40;12.23;;;23.80;98.30;;;;;;6189818;23;20017;-83
2021/06/26 11:06:13;;;;;;;18.40;12.88;;;23.70;98.00;;;;;;6188250;23;20017;-83
2021/06/26 11:08:52;;;;;;;16.92;12.48;;;23.80;97.70;;;;;;6197635;23;20040;-82
2021/06/26 11:11:35;;;;;;;18.75;11.80;;;23.70;98.20;;;;;;6187790;23;20076;-82
2021/06/26 11:14:21;;;;;;;15.98;10.73;;;23.70;97.90;;;;;;6189181;23;20367;-82
2021/06/26 11:16:51;;;;;;;18.85;11.80;;;23.80;98.00;;;;;;6181917;23;20101;-82
2021/06/26 11:19:18;;;;;;;;;;;23.90;97.20;;;;;;6187517;23;20064;-83
2021/06/26 11:21:48;;;;;;;15.48;11.20;;;24.00;97.60;;;;;;6186806;23;19931;-83
2021/06/26 11:24:16;;;;;;;12.82;9.23;;;24.20;97.60;;;;;;6189167;23;20309;-83
2021/06/26 11:26:52;;;;;;;15.02;8.93;;;24.40;98.60;;;;;;6159107;23;20555;-82
2021/06/26 11:29:27;;;;;;;18.13;11.23;;;24.50;97.50;;;;;;6163965;23;20482;-84
2021/06/26 11:31:56;;;;;;;14.35;10.02;;;24.60;98.00;;;;;;6198722;23;20021;-84
2021/06/26 11:34:23;;;;;;;14.90;10.02;;;24.80;97.70;;;;;;6184671;23;20017;-84
2021/06/26 11:37:05;;;;;;;16.23;10.02;;;26.90;98.20;;;;;;6186838;23;20087;-84
2021/06/26 11:39:33;;;;;;;11.27;7.97;;;24.70;97.50;;;;;;6196962;23;20332;-84
2021/06/26 11:42:01;;;;;;;12.18;8.32;;;24.70;96.60;;;;;;6162399;23;20017;-82
2021/06/26 11:44:32;;;;;;;13.13;9.35;;;24.70;96.60;;;;;;6161049;23;20025;-83
2021/06/26 11:47:02;;;;;;;11.80;8.68;;;24.70;95.60;;;;;;6187347;23;20381;-83
2021/06/26 11:49:35;;;;;;;14.40;9.68;;;24.60;97.40;;;;;;6194385;23;20474;-83
2021/06/26 11:52:02;;;;;;;13.63;8.60;;;24.50;97.20;;;;;;6157962;23;20020;-82
2021/06/26 11:54:29;;;;;;;11.80;8.45;;;24.60;96.00;;;;;;6156907;23;20044;-82
2021/06/26 11:56:56;;;;;;;14.70;8.20;;;24.60;95.40;;;;;;6184679;23;20067;-84
2021/06/26 11:59:23;;;;;;;12.60;8.20;;;24.60;95.50;;;;;;6196701;23;20017;-84
2021/06/26 12:01:50;;;;;;;12.52;8.27;;;24.60;96.00;;;;;;6160119;23;20032;-83
2021/06/26 12:04:28;;;;;;;9.68;6.72;;;24.90;96.70;;;;;;6182356;23;20386;-84
2021/06/26 12:06:55;;;;;;;11.30;7.45;;;25.00;95.10;;;;;;6160775;23;20028;-84
2021/06/26 12:09:24;;;;;;;9.38;6.85;;;24.80;94.20;;;;;;6184633;23;20021;-82
2021/06/26 12:11:53;;;;;;;9.88;6.53;;;24.50;94.90;;;;;;6186845;23;20025;-83
2021/06/26 12:14:28;;;;;;;11.63;7.07;;;24.30;95.30;;;;;;6159354;23;20087;-83
2021/06/26 12:17:03;;;;;;;10.52;6.82;;;24.30;95.80;;;;;;6159441;23;20021;-83
2021/06/26 12:19:32;;;;;;;10.38;7.03;;;24.40;94.80;;;;;;6188522;23;20033;-84
2021/06/26 12:22:01;;;;;;;9.82;6.97;;;24.40;94.30;;;;;;6169526;23;20063;-83
2021/06/26 12:24:29;;;;;;;9.77;6.40;;;24.30;94.80;;;;;;6161639;23;20083;-85
2021/06/26 12:27:08;;;;;;;11.33;7.80;;;24.00;95.70;;;;;;6161355;23;20028;-85
2021/06/26 12:29:35;;;;;;;10.57;6.82;;;24.00;95.00;;;;;;6188026;23;20032;-84
2021/06/26 12:32:03;;;;;;;12.95;7.68;;;24.00;95.20;;;;;;6188630;23;20203;-85
2021/06/26 12:34:32;;;;;;;12.85;8.80;;;24.10;94.80;;;;;;6165410;23;20128;-84
2021/06/26 12:36:59;;;;;;;14.52;7.35;;;24.00;94.20;;;;;;6174711;23;20020;-84